Time;durP1;ratioP1;P1;durP2;ratioP2;P2;SDS_P1;SDS_P2;PMS_P1;PMS_P2;Temp;Humidity;BMP_temperature;BMP_pressure;BME280_temperature;BME280_humidity;BME280_pressure;Samples;Min_cycle;Max_cycle;Signal;HPM_P1;HPM_P2
2023/06/23 00:00:09;;;;;;;4.33;3.93;;;;;;;21.20;100.00;100302.22;5098918;28;20856;-73
2023/06/23 00:02:35;;;;;;;4.33;4.03;;;;;;;21.20;100.00;100304.84;5090488;28;20262;-75
2023/06/23 00:05:01;;;;;;;4.90;4.27;;;;;;;21.20;100.00;100315.38;5087198;28;20208;-75
2023/06/23 00:07:26;;;;;;;4.53;4.07;;;;;;;21.18;100.00;100323.38;5085314;28;20194;-73
2023/06/23 00:09:51;;;;;;;4.13;3.73;;;;;;;21.16;100.00;100334.00;5096736;27;20207;-74
2023/06/23 00:12:17;;;;;;;3.60;3.30;;;;;;;21.12;100.00;100345.59;5090607;28;20244;-74
2023/06/23 00:14:42;;;;;;;3.30;3.10;;;;;;;21.08;100.00;100351.09;5086202;28;20248;-73
2023/06/23 00:17:07;;;;;;;3.60;3.30;;;;;;;21.02;100.00;100357.53;5091235;28;20192;-75
2023/06/23 00:19:33;;;;;;;3.33;3.10;;;;;;;20.95;100.00;100356.97;5095313;28;20692;-75
2023/06/23 00:21:58;;;;;;;3.63;3.33;;;;;;;20.92;100.00;100366.81;5085339;28;20227;-73
2023/06/23 00:24:27;;;;;;;3.70;3.40;;;;;;;20.82;100.00;100377.81;5082114;28;20321;-73
2023/06/23 00:26:52;;;;;;;3.40;3.13;;;;;;;20.80;100.00;100395.44;5086709;28;20999;-74
2023/06/23 00:29:17;;;;;;;3.53;3.23;;;;;;;20.76;100.00;100414.94;5080047;28;20281;-73
2023/06/23 00:31:43;;;;;;;3.90;3.60;;;;;;;20.75;100.00;100423.75;5088218;28;20292;-73
2023/06/23 00:34:08;;;;;;;4.57;4.17;;;;;;;20.71;100.00;100438.81;5089221;28;20181;-73
2023/06/23 00:36:33;;;;;;;4.60;4.30;;;;;;;20.67;100.00;100445.13;5085956;28;20237;-74
2023/06/23 00:39:03;;;;;;;4.07;3.77;;;;;;;20.60;100.00;100453.38;5082334;28;20193;-74
2023/06/23 00:41:28;;;;;;;4.20;3.90;;;;;;;20.49;100.00;100462.66;5086212;28;20712;-74
2023/06/23 00:43:58;;;;;;;5.73;3.97;;;;;;;20.45;100.00;100473.38;5089077;28;20187;-74
2023/06/23 00:46:25;;;;;;;4.43;4.10;;;;;;;20.44;100.00;100476.94;5083297;28;20567;-74
2023/06/23 00:48:51;;;;;;;3.87;3.57;;;;;;;20.44;100.00;100480.41;5083765;28;20666;-74
2023/06/23 00:51:17;;;;;;;4.40;4.10;;;;;;;20.43;100.00;100477.88;5086685;28;20189;-74
2023/06/23 00:53:47;;;;;;;4.40;4.10;;;;;;;20.44;100.00;100485.66;5083372;28;20195;-74
2023/06/23 00:56:14;;;;;;;5.23;4.73;;;;;;;20.40;100.00;100492.84;5083268;28;20192;-74
2023/06/23 00:58:40;;;;;;;5.20;4.70;;;;;;;20.38;100.00;100491.22;5081864;28;20916;-74
2023/06/23 01:01:05;;;;;;;5.13;4.67;;;;;;;20.36;100.00;100493.06;5086178;28;20265;-74
2023/06/23 01:03:31;;;;;;;4.77;4.37;;;;;;;20.35;100.00;100501.88;5088476;28;20232;-75
2023/06/23 01:06:03;;;;;;;4.70;4.30;;;;;;;20.30;100.00;100490.72;5083089;28;20216;-73
2023/06/23 01:08:48;;;;;;;4.63;4.23;;;;;;;20.27;100.00;100499.59;5084114;28;20612;-74
2023/06/23 01:11:22;;;;;;;5.30;4.80;;;;;;;20.23;100.00;100491.03;5085269;28;20206;-74
2023/06/23 01:14:35;;;;;;;5.03;4.63;;;;;;;20.20;100.00;100492.91;5076662;28;20326;-74
2023/06/23 01:17:10;;;;;;;4.80;4.40;;;;;;;20.19;100.00;100488.63;5049848;28;20298;-74
2023/06/23 01:19:57;;;;;;;4.70;4.30;;;;;;;20.20;100.00;100492.91;5082128;28;20195;-75
2023/06/23 01:22:50;;;;;;;4.70;4.30;;;;;;;20.22;100.00;100494.56;5081163;28;20265;-74
2023/06/23 01:25:54;;;;;;;5.77;5.07;;;;;;;20.22;100.00;100505.09;5085001;28;20211;-72
2023/06/23 01:28:38;;;;;;;4.90;4.50;;;;;;;20.23;100.00;100501.53;5087938;28;20289;-73
2023/06/23 01:31:06;;;;;;;4.77;4.37;;;;;;;20.23;100.00;100512.03;5081729;28;20192;-74
2023/06/23 01:33:40;;;;;;;5.70;5.10;;;;;;;20.25;100.00;100511.97;5079969;28;20212;-74
2023/06/23 01:36:24;;;;;;;5.37;4.97;;;;;;;20.26;100.00;100521.56;5082498;28;20551;-73
2023/06/23 01:38:52;;;;;;;5.80;5.30;;;;;;;20.24;100.00;100526.03;5083840;28;20199;-73
2023/06/23 01:41:23;;;;;;;6.10;5.33;;;;;;;20.23;100.00;100524.31;5084801;28;20192;-74
2023/06/23 01:43:53;;;;;;;5.50;5.00;;;;;;;20.22;100.00;100526.09;5076085;28;20189;-73
2023/06/23 01:46:34;;;;;;;5.70;5.20;;;;;;;20.19;100.00;100520.97;5092071;28;20197;-73
2023/06/23 01:49:02;;;;;;;6.00;5.50;;;;;;;20.16;100.00;100520.28;5079045;28;20179;-74
2023/06/23 01:51:29;;;;;;;5.97;5.47;;;;;;;20.13;100.00;100512.53;5094507;28;20184;-74
2023/06/23 01:53:56;;;;;;;5.80;5.37;;;;;;;20.09;100.00;100514.44;5083701;28;20763;-73
2023/06/23 01:56:23;;;;;;;6.57;5.67;;;;;;;20.08;100.00;100516.22;5091912;28;20568;-74
2023/06/23 01:58:50;;;;;;;6.90;6.30;;;;;;;19.99;100.00;100513.13;5092355;28;20191;-73
2023/06/23 02:01:17;;;;;;;5.97;5.47;;;;;;;19.94;100.00;100511.59;5086665;28;20249;-73
2023/06/23 02:03:45;;;;;;;6.40;5.90;;;;;;;19.90;100.00;100507.38;5094525;28;20561;-73
2023/06/23 02:06:11;;;;;;;7.23;6.00;;;;;;;19.89;100.00;100499.59;5086492;28;20580;-74
2023/06/23 02:08:37;;;;;;;5.93;5.50;;;;;;;19.85;100.00;100496.19;5086835;28;20677;-74
2023/06/23 02:11:05;;;;;;;6.60;6.00;;;;;;;19.82;100.00;100496.31;5099191;28;20616;-72
2023/06/23 02:13:31;;;;;;;6.30;5.60;;;;;;;19.77;100.00;100508.81;5080963;28;20258;-75
2023/06/23 02:15:58;;;;;;;6.73;6.17;;;;;;;19.70;100.00;100504.75;5086946;28;20256;-73
2023/06/23 02:18:26;;;;;;;7.37;6.03;;;;;;;19.67;100.00;100508.38;5089987;28;20189;-74
2023/06/23 02:20:53;;;;;;;6.73;6.10;;;;;;;19.64;100.00;100514.63;5085142;28;20666;-74
2023/06/23 02:23:19;;;;;;;7.10;6.40;;;;;;;19.61;100.00;100516.50;5076544;28;20205;-73
2023/06/23 02:25:45;;;;;;;9.20;6.80;;;;;;;19.57;100.00;100509.69;5081107;28;20702;-74
2023/06/23 02:28:12;;;;;;;7.33;6.73;;;;;;;19.51;100.00;100508.19;5082844;28;20274;-74
2023/06/23 02:30:39;;;;;;;7.40;6.70;;;;;;;19.48;100.00;100511.78;5088645;28;20183;-75
2023/06/23 02:33:05;;;;;;;7.67;7.07;;;;;;;19.47;100.00;100507.44;5096855;28;20206;-74
2023/06/23 02:35:33;;;;;;;8.13;7.43;;;;;;;19.41;100.00;100509.47;5106108;28;20715;-73
2023/06/23 02:38:00;;;;;;;8.63;7.93;;;;;;;19.38;100.00;100507.84;5085186;28;20189;-73
2023/06/23 02:40:29;;;;;;;8.93;8.20;;;;;;;19.37;100.00;100513.13;5094909;28;20184;-72
2023/06/23 02:43:24;;;;;;;9.83;8.80;;;;;;;19.33;100.00;100512.44;5086232;28;20211;-74
2023/06/23 02:45:55;;;;;;;10.27;9.37;;;;;;;19.31;100.00;100516.88;5088598;28;20728;-74
2023/06/23 02:48:26;;;;;;;11.00;10.10;;;;;;;19.29;100.00;100514.34;5087491;28;20263;-74
2023/06/23 02:50:56;;;;;;;11.73;10.73;;;;;;;19.30;100.00;100512.53;5086796;28;20266;-73
2023/06/23 02:53:26;;;;;;;13.63;12.43;;;;;;;19.29;100.00;100516.09;5093437;28;20219;-74
2023/06/23 02:56:01;;;;;;;14.17;13.00;;;;;;;19.28;100.00;100523.13;5087475;28;20233;-73
2023/06/23 02:58:29;;;;;;;14.77;13.47;;;;;;;19.30;100.00;100523.03;5103307;28;20695;-73
2023/06/23 03:00:57;;;;;;;15.40;14.20;;;;;;;19.26;100.00;100538.06;5089676;28;20245;-73
2023/06/23 03:03:23;;;;;;;16.77;15.37;;;;;;;19.26;100.00;100537.22;5090974;28;20690;-73
2023/06/23 03:05:49;;;;;;;18.17;16.70;;;;;;;19.27;100.00;100547.66;5090302;28;20212;-73
2023/06/23 03:08:15;;;;;;;17.20;15.83;;;;;;;19.22;100.00;100548.75;5079280;28;20181;-73
2023/06/23 03:10:41;;;;;;;17.50;16.10;;;;;;;19.22;100.00;100549.59;5085581;28;20192;-73
2023/06/23 03:13:07;;;;;;;19.03;17.37;;;;;;;19.25;100.00;100553.88;5087892;28;20201;-74
2023/06/23 03:15:33;;;;;;;18.23;16.80;;;;;;;19.23;100.00;100553.94;5080789;28;20201;-74
2023/06/23 03:18:15;;;;;;;19.00;17.40;;;;;;;19.27;100.00;100559.94;5096461;28;20185;-74
2023/06/23 03:20:46;;;;;;;20.47;18.87;;;;;;;19.25;100.00;100569.63;5089604;28;20178;-74
2023/06/23 03:23:13;;;;;;;21.60;19.80;;;;;;;19.21;100.00;100568.88;5087312;28;20695;-73
2023/06/23 03:25:41;;;;;;;21.00;19.27;;;;;;;19.20;100.00;100567.19;5087914;28;20259;-74
2023/06/23 03:28:09;;;;;;;21.83;20.03;;;;;;;19.19;100.00;100563.72;5082699;28;20686;-74
2023/06/23 03:30:45;;;;;;;22.70;20.90;;;;;;;19.19;100.00;100576.81;5084163;28;20528;-73
2023/06/23 03:33:33;;;;;;;23.80;21.70;;;;;;;19.22;100.00;100582.88;5090273;28;20210;-73
2023/06/23 03:36:07;;;;;;;25.27;23.20;;;;;;;19.26;100.00;100587.09;5111730;27;20190;-74
2023/06/23 03:38:37;;;;;;;26.37;24.30;;;;;;;19.24;100.00;100589.75;5094661;28;20271;-73
2023/06/23 03:41:09;;;;;;;26.90;24.80;;;;;;;19.22;100.00;100590.75;5087799;28;20180;-72
2023/06/23 03:43:39;;;;;;;26.77;24.60;;;;;;;19.22;100.00;100593.34;5085716;28;20201;-73
2023/06/23 03:46:12;;;;;;;28.33;26.03;;;;;;;19.25;100.00;100594.09;5100647;28;20242;-73
2023/06/23 03:48:41;;;;;;;29.97;27.47;;;;;;;19.26;100.00;100601.03;5088113;28;20186;-71
2023/06/23 03:51:10;;;;;;;27.87;25.60;;;;;;;19.29;100.00;100600.91;5094349;28;20587;-73
2023/06/23 03:53:37;;;;;;;29.23;26.80;;;;;;;19.33;100.00;100606.88;5085445;28;20289;-73
2023/06/23 03:56:04;;;;;;;28.57;26.27;;;;;;;19.32;100.00;100621.78;5083105;28;20304;-72
2023/06/23 03:58:30;;;;;;;30.53;28.03;;;;;;;19.32;100.00;100621.78;5088851;28;20240;-73
2023/06/23 04:00:57;;;;;;;29.93;27.53;;;;;;;19.37;100.00;100626.84;5079097;28;20197;-72
2023/06/23 04:03:24;;;;;;;31.13;28.53;;;;;;;19.38;100.00;100631.19;5086803;28;20283;-73
2023/06/23 04:05:50;;;;;;;31.30;28.70;;;;;;;19.40;100.00;100628.50;5100994;28;20229;-73
2023/06/23 04:08:18;;;;;;;31.47;28.93;;;;;;;19.42;100.00;100632.78;5094320;28;20195;-74
2023/06/23 04:10:46;;;;;;;29.70;27.30;;;;;;;19.43;100.00;100636.25;5084620;28;20199;-73
2023/06/23 04:13:13;;;;;;;32.03;29.27;;;;;;;19.45;100.00;100637.88;5085121;28;20214;-73
2023/06/23 04:15:40;;;;;;;32.37;29.67;;;;;;;19.44;100.00;100633.53;5083573;28;20189;-72
2023/06/23 04:18:08;;;;;;;34.33;31.53;;;;;;;19.43;100.00;100637.13;5084763;28;20623;-72
2023/06/23 04:20:35;;;;;;;34.47;31.67;;;;;;;19.41;100.00;100641.56;5097267;28;20183;-72
2023/06/23 04:23:03;;;;;;;34.63;31.83;;;;;;;19.40;100.00;100650.34;5076796;28;20270;-73
2023/06/23 04:25:29;;;;;;;36.60;33.63;;;;;;;19.39;100.00;100655.66;5095265;28;20273;-72
2023/06/23 04:28:00;;;;;;;37.57;34.13;;;;;;;19.37;100.00;100654.84;5111439;27;20572;-74
2023/06/23 04:30:28;;;;;;;36.60;33.57;;;;;;;19.35;100.00;100668.03;5080565;28;20259;-74
2023/06/23 04:32:53;;;;;;;38.27;35.07;;;;;;;19.34;100.00;100672.44;5086917;28;20204;-73
2023/06/23 04:35:19;;;;;;;39.00;35.70;;;;;;;19.37;100.00;100675.84;5093525;28;20210;-73
2023/06/23 04:37:52;;;;;;;40.47;36.77;;;;;;;19.40;100.00;100679.22;5086661;28;20187;-73
2023/06/23 04:40:29;;;;;;;38.40;35.10;;;;;;;19.40;100.00;100676.59;5093520;28;20180;-73
2023/06/23 04:43:02;;;;;;;39.70;36.40;;;;;;;19.43;100.00;100679.13;5073436;28;20205;-73
2023/06/23 04:45:30;;;;;;;39.17;35.73;;;;;;;19.49;100.00;100683.25;5091606;28;20219;-73
2023/06/23 04:48:01;;;;;;;37.60;34.40;;;;;;;19.57;100.00;100690.81;5084734;28;20557;-74
2023/06/23 04:50:33;;;;;;;37.77;34.57;;;;;;;19.66;100.00;100690.44;5085398;28;20187;-72
2023/06/23 04:53:05;;;;;;;36.97;33.80;;;;;;;19.77;100.00;100690.84;5088573;28;20250;-73
2023/06/23 04:55:33;;;;;;;38.33;34.93;;;;;;;19.94;100.00;100698.09;5094098;28;20165;-73
2023/06/23 04:58:02;;;;;;;40.70;37.30;;;;;;;20.08;100.00;100691.41;5085044;28;20229;-73
2023/06/23 05:00:29;;;;;;;41.40;37.67;;;;;;;20.24;100.00;100697.72;5085680;28;20239;-73
2023/06/23 05:02:57;;;;;;;39.13;35.73;;;;;;;20.43;100.00;100696.03;5080722;28;20220;-72
2023/06/23 05:05:27;;;;;;;37.30;34.00;;;;;;;20.73;100.00;100703.50;5088747;28;20209;-73
2023/06/23 05:07:55;;;;;;;39.27;36.03;;;;;;;21.00;100.00;100702.25;5095599;28;20216;-73
2023/06/23 05:10:22;;;;;;;37.03;33.73;;;;;;;21.17;100.00;100706.75;5081976;28;20223;-74
2023/06/23 05:12:50;;;;;;;37.43;33.97;;;;;;;21.34;100.00;100706.88;5077112;28;21058;-73
2023/06/23 05:15:19;;;;;;;34.87;31.87;;;;;;;21.52;100.00;100707.78;5075701;28;20189;-72
2023/06/23 05:17:48;;;;;;;32.83;29.93;;;;;;;21.58;100.00;100703.06;5091047;28;20215;-74
2023/06/23 05:20:16;;;;;;;32.10;29.40;;;;;;;21.57;100.00;100703.97;5083022;28;20178;-73
2023/06/23 05:22:46;;;;;;;31.67;28.70;;;;;;;21.55;100.00;100721.66;5090537;28;20213;-72
2023/06/23 05:25:12;;;;;;;32.97;30.17;;;;;;;21.44;100.00;100714.28;5098138;28;20201;-73
2023/06/23 05:27:44;;;;;;;37.73;34.37;;;;;;;21.39;100.00;100721.53;5076844;28;20258;-73
2023/06/23 05:30:16;;;;;;;37.20;33.73;;;;;;;21.38;100.00;100734.78;5088294;28;20215;-73
2023/06/23 05:32:42;;;;;;;35.63;32.33;;;;;;;21.44;100.00;100731.84;5081035;28;20196;-74
2023/06/23 05:35:10;;;;;;;32.50;29.60;;;;;;;21.40;100.00;100733.78;5084911;28;20191;-73
2023/06/23 05:37:38;;;;;;;36.30;33.10;;;;;;;21.30;100.00;100738.59;5082662;28;20814;-73
2023/06/23 05:40:06;;;;;;;33.13;30.17;;;;;;;21.27;100.00;100737.91;5084129;28;20216;-73
2023/06/23 05:42:34;;;;;;;35.87;32.47;;;;;;;21.15;100.00;100740.19;5092741;27;20205;-72
2023/06/23 05:45:01;;;;;;;38.90;35.27;;;;;;;21.06;100.00;100735.31;5092361;28;20212;-72
2023/06/23 05:47:40;;;;;;;37.80;34.20;;;;;;;21.02;100.00;100744.31;5085079;28;20251;-73
2023/06/23 05:50:15;;;;;;;33.07;29.97;;;;;;;21.11;100.00;100745.63;5085220;28;20196;-72
2023/06/23 05:52:50;;;;;;;30.60;27.87;;;;;;;21.37;100.00;100751.50;5094545;28;20291;-73
2023/06/23 05:55:18;;;;;;;35.73;32.53;;;;;;;21.68;100.00;100745.63;5088255;28;20190;-73
2023/06/23 05:57:45;;;;;;;30.87;28.10;;;;;;;22.06;100.00;100744.69;5097503;28;20528;-73
2023/06/23 06:00:13;;;;;;;31.57;28.67;;;;;;;22.30;100.00;100729.41;5081683;28;20191;-73
2023/06/23 06:02:43;;;;;;;28.83;26.17;;;;;;;22.57;100.00;100746.56;5092963;28;20204;-73
2023/06/23 06:05:13;;;;;;;33.07;29.97;;;;;;;22.71;100.00;100746.69;5087916;28;20215;-73
2023/06/23 06:07:39;;;;;;;28.60;26.10;;;;;;;22.91;100.00;100747.44;5088694;28;20640;-73
2023/06/23 06:10:08;;;;;;;27.97;25.47;;;;;;;23.01;100.00;100753.91;5084574;28;20193;-74
2023/06/23 06:12:35;;;;;;;27.80;25.30;;;;;;;23.07;100.00;100758.84;5090450;28;20633;-73
2023/06/23 06:15:02;;;;;;;26.60;24.20;;;;;;;23.10;100.00;100766.59;5092275;28;20189;-74
2023/06/23 06:17:30;;;;;;;26.30;24.00;;;;;;;23.05;100.00;100759.88;5099681;28;20177;-73
2023/06/23 06:19:59;;;;;;;27.97;25.43;;;;;;;22.98;100.00;100773.41;5084177;28;20253;-73
2023/06/23 06:22:26;;;;;;;26.40;23.77;;;;;;;22.91;100.00;100774.66;5097654;28;20208;-73
2023/06/23 06:24:53;;;;;;;24.03;21.83;;;;;;;22.92;100.00;100781.66;5102182;28;20214;-73
2023/06/23 06:27:20;;;;;;;25.60;23.13;;;;;;;22.91;100.00;100785.22;5100715;28;20241;-73
2023/06/23 06:29:47;;;;;;;26.63;24.07;;;;;;;22.84;100.00;100791.72;5091832;28;20188;-74
2023/06/23 06:32:13;;;;;;;28.40;25.80;;;;;;;22.77;100.00;100793.84;5086560;28;20216;-73
2023/06/23 06:34:42;;;;;;;27.87;25.30;;;;;;;22.71;100.00;100794.19;5096032;28;20393;-73
2023/06/23 06:37:09;;;;;;;26.23;23.77;;;;;;;22.75;100.00;100795.75;5091647;28;20196;-73
2023/06/23 06:39:37;;;;;;;27.53;25.03;;;;;;;22.82;100.00;100789.19;5101821;28;20199;-74
2023/06/23 06:42:02;;;;;;;25.57;23.17;;;;;;;22.94;100.00;100790.34;5086707;28;20217;-73
2023/06/23 06:44:28;;;;;;;25.10;22.87;;;;;;;23.15;100.00;100800.66;5092041;28;20215;-74
2023/06/23 06:46:54;;;;;;;24.80;22.60;;;;;;;23.41;100.00;100798.44;5097484;28;20192;-73
2023/06/23 06:49:23;;;;;;;22.57;20.63;;;;;;;23.65;98.59;100796.25;5085884;28;20216;-73
2023/06/23 06:51:50;;;;;;;22.60;20.60;;;;;;;23.82;97.32;100802.38;5085927;28;20205;-73
2023/06/23 06:54:16;;;;;;;22.37;20.53;;;;;;;23.98;96.47;100812.94;5087755;28;20189;-73
2023/06/23 06:56:42;;;;;;;25.83;23.40;;;;;;;23.87;96.17;100811.75;5086894;28;20189;-74
2023/06/23 06:59:08;;;;;;;23.30;21.30;;;;;;;23.84;95.73;100821.59;5088857;28;20189;-74
2023/06/23 07:01:35;;;;;;;27.60;25.00;;;;;;;23.73;94.84;100811.66;5086643;28;20189;-73
2023/06/23 07:04:02;;;;;;;22.70;20.67;;;;;;;23.70;95.58;100822.41;5088878;28;20185;-73
2023/06/23 07:06:28;;;;;;;19.67;18.07;;;;;;;23.67;95.96;100828.69;5086315;28;20224;-74
2023/06/23 07:08:53;;;;;;;21.50;19.60;;;;;;;23.73;95.84;100819.59;5081830;28;20573;-75
2023/06/23 07:11:19;;;;;;;21.20;19.40;;;;;;;23.69;95.45;100824.16;5102101;28;20379;-73
2023/06/23 07:13:45;;;;;;;23.97;21.80;;;;;;;23.72;95.20;100818.72;5092578;28;20652;-75
2023/06/23 07:16:10;;;;;;;24.50;22.30;;;;;;;23.87;94.52;100818.78;5080986;28;20193;-74
2023/06/23 07:18:35;;;;;;;24.47;22.23;;;;;;;23.94;94.93;100821.94;5087112;28;20185;-74
2023/06/23 07:21:03;;;;;;;24.50;22.40;;;;;;;24.15;94.04;100828.69;5098678;28;20196;-74
2023/06/23 07:23:28;;;;;;;21.37;19.47;;;;;;;24.57;91.69;100833.34;5091172;28;20213;-74
2023/06/23 07:25:53;;;;;;;21.33;19.40;;;;;;;24.63;90.35;100831.19;5085558;28;20245;-74
2023/06/23 07:28:20;;;;;;;17.93;16.30;;;;;;;24.90;89.45;100834.94;5084619;28;20201;-74
2023/06/23 07:30:45;;;;;;;15.93;14.53;;;;;;;25.01;89.02;100843.06;5096933;28;20181;-74
2023/06/23 07:33:10;;;;;;;20.03;18.33;;;;;;;25.09;87.93;100843.47;5083682;28;20204;-74
2023/06/23 07:35:36;;;;;;;18.80;17.17;;;;;;;25.39;86.84;100844.31;5095438;28;20184;-74
2023/06/23 07:38:02;;;;;;;16.97;15.37;;;;;;;25.70;84.82;100842.38;5098146;28;20177;-74
2023/06/23 07:40:27;;;;;;;14.50;13.23;;;;;;;25.74;85.48;100851.00;5085149;28;20212;-75
2023/06/23 07:42:53;;;;;;;14.20;13.00;;;;;;;25.82;84.96;100857.50;5100736;28;20205;-73
2023/06/23 07:45:18;;;;;;;15.27;13.97;;;;;;;26.23;83.33;100863.75;5090010;28;20205;-74
2023/06/23 07:47:43;;;;;;;14.73;13.37;;;;;;;26.54;81.39;100866.16;5100068;28;20241;-74
2023/06/23 07:50:09;;;;;;;14.33;13.13;;;;;;;26.56;81.26;100869.53;5088216;28;20618;-74
2023/06/23 07:52:34;;;;;;;15.97;14.37;;;;;;;26.51;80.82;100867.22;5088141;28;20200;-74
2023/06/23 07:55:00;;;;;;;15.37;13.97;;;;;;;26.19;80.76;100874.66;5085283;28;20192;-73
2023/06/23 07:57:25;;;;;;;14.27;12.97;;;;;;;26.02;80.97;100881.88;5096249;28;20738;-74
2023/06/23 07:59:50;;;;;;;12.33;11.33;;;;;;;26.07;82.19;100884.22;5088360;28;20885;-73
2023/06/23 08:02:19;;;;;;;12.33;11.23;;;;;;;26.27;82.25;100877.66;5101167;28;20638;-74
2023/06/23 08:04:44;;;;;;;14.60;13.30;;;;;;;26.19;82.03;100870.19;5108349;28;20192;-74
2023/06/23 08:07:09;;;;;;;15.37;14.07;;;;;;;25.84;81.02;100879.47;5086538;28;20188;-75
2023/06/23 08:09:35;;;;;;;15.67;14.23;;;;;;;25.68;81.35;100870.78;5078029;28;20666;-74
2023/06/23 08:12:00;;;;;;;14.13;12.63;;;;;;;25.70;81.57;100877.72;5083436;28;20209;-74
2023/06/23 08:14:25;;;;;;;15.00;13.70;;;;;;;25.72;81.89;100880.25;5086384;28;20183;-74
2023/06/23 08:16:51;;;;;;;13.70;12.50;;;;;;;25.96;80.66;100888.44;5087362;28;20203;-74
2023/06/23 08:19:21;;;;;;;13.07;12.07;;;;;;;26.17;79.41;100882.69;5108096;28;20172;-73
2023/06/23 08:21:48;;;;;;;13.53;12.33;;;;;;;26.28;79.23;100892.63;5101506;28;20230;-74
2023/06/23 08:24:13;;;;;;;11.73;10.73;;;;;;;26.67;79.45;100885.63;5099982;27;20221;-74
2023/06/23 08:26:38;;;;;;;10.80;9.90;;;;;;;27.01;78.13;100890.47;5088373;28;20269;-74
2023/06/23 08:29:04;;;;;;;11.77;10.77;;;;;;;27.17;76.51;100898.19;5094457;28;20236;-74
2023/06/23 08:31:29;;;;;;;11.82;10.60;;;;;;;27.30;76.07;100890.22;5089561;28;20201;-74
2023/06/23 08:33:54;;;;;;;11.43;10.43;;;;;;;27.32;75.75;100893.63;5085825;28;20249;-74
2023/06/23 08:36:20;;;;;;;11.27;10.37;;;;;;;27.64;75.63;100893.19;5086065;28;20728;-74
2023/06/23 08:38:45;;;;;;;10.18;9.07;;;;;;;27.80;74.81;100895.59;5086949;28;20172;-74
2023/06/23 08:41:11;;;;;;;13.35;12.30;;;;;;;27.83;74.48;100900.69;5079427;28;20273;-74
2023/06/23 08:43:40;;;;;;;11.60;10.60;;;;;;;27.83;73.25;100900.69;5082064;28;20585;-74
2023/06/23 08:46:07;;;;;;;11.20;10.32;;;;;;;27.58;73.27;100896.28;5106888;27;20204;-75
2023/06/23 08:48:35;;;;;;;11.88;10.90;;;;;;;27.23;72.64;100906.59;5087635;28;20188;-74
2023/06/23 08:51:02;;;;;;;10.90;9.93;;;;;;;27.39;74.16;100913.50;5083278;28;20185;-74
2023/06/23 08:53:27;;;;;;;13.95;9.80;;;;;;;27.73;74.59;100916.44;5092286;28;20316;-74
2023/06/23 08:55:54;;;;;;;11.23;10.25;;;;;;;27.81;73.61;100907.91;5085226;28;20653;-74
2023/06/23 08:58:21;;;;;;;10.82;9.85;;;;;;;27.63;73.66;100908.28;5082661;28;20192;-73
2023/06/23 09:00:49;;;;;;;11.88;10.60;;;;;;;27.54;73.46;100909.78;5089248;28;20722;-73
2023/06/23 09:03:14;;;;;;;11.07;10.17;;;;;;;27.40;74.04;100904.56;5091363;28;20254;-74
2023/06/23 09:05:43;;;;;;;10.53;9.53;;;;;;;27.45;73.85;100917.56;5083085;28;20230;-74
2023/06/23 09:08:10;;;;;;;12.87;11.77;;;;;;;27.57;74.20;100914.06;5092398;28;20191;-75
2023/06/23 09:10:35;;;;;;;11.43;10.53;;;;;;;27.44;74.10;100910.53;5084055;28;20192;-75
2023/06/23 09:13:13;;;;;;;14.67;13.47;;;;;;;27.35;74.24;100928.81;5082948;28;20209;-74
2023/06/23 09:15:39;;;;;;;11.23;10.23;;;;;;;27.21;73.91;100923.59;5083645;28;21082;-75
2023/06/23 09:18:08;;;;;;;10.97;10.03;;;;;;;27.37;72.88;100939.34;5084735;28;20257;-74
2023/06/23 09:20:34;;;;;;;10.50;9.53;;;;;;;27.36;72.93;100930.50;5084129;28;20187;-74
2023/06/23 09:23:00;;;;;;;10.93;9.83;;;;;;;27.28;72.59;100930.22;5092127;28;20307;-73
2023/06/23 09:25:50;;;;;;;9.80;9.00;;;;;;;27.41;73.71;100932.84;5083950;28;20320;-74
2023/06/23 09:28:36;;;;;;;13.77;12.57;;;;;;;27.04;74.79;100919.47;5084284;28;20188;-74
2023/06/23 09:31:13;;;;;;;9.80;8.90;;;;;;;27.15;74.33;100930.19;5076440;28;20192;-74
2023/06/23 09:34:04;;;;;;;14.27;13.03;;;;;;;26.73;72.35;100929.50;5085198;28;20205;-74
2023/06/23 09:36:33;;;;;;;8.90;8.10;;;;;;;26.90;73.71;100934.53;5083064;28;20742;-73
2023/06/23 09:38:58;;;;;;;10.17;9.37;;;;;;;27.04;73.88;100935.41;5107237;28;20184;-74
2023/06/23 09:41:26;;;;;;;11.50;10.33;;;;;;;27.12;73.40;100938.38;5083916;28;20674;-74
2023/06/23 09:43:51;;;;;;;10.77;9.80;;;;;;;27.15;72.78;100940.81;5098536;28;20466;-74
2023/06/23 09:46:22;;;;;;;8.97;8.27;;;;;;;27.23;72.73;100933.16;5093504;28;20259;-74
2023/06/23 09:48:49;;;;;;;12.57;11.27;;;;;;;27.20;71.90;100932.53;5095224;28;20180;-74
2023/06/23 09:51:18;;;;;;;10.73;9.73;;;;;;;27.46;71.88;100938.72;5088857;28;20211;-74
2023/06/23 09:53:44;;;;;;;9.30;8.50;;;;;;;27.55;71.71;100945.22;5080700;28;20200;-74
2023/06/23 09:56:15;;;;;;;9.10;8.40;;;;;;;27.53;71.18;100955.94;5091753;28;20724;-74
2023/06/23 09:58:42;;;;;;;8.30;7.67;;;;;;;27.45;70.83;100944.13;5086301;28;20222;-73
2023/06/23 10:01:10;;;;;;;9.03;8.33;;;;;;;27.36;70.66;100941.13;5079239;28;20544;-74
2023/06/23 10:03:52;;;;;;;8.40;7.70;;;;;;;27.27;71.30;100943.59;5081574;28;20274;-74
2023/06/23 10:06:21;;;;;;;9.63;8.67;;;;;;;27.23;71.64;100948.25;5085062;28;20354;-74
2023/06/23 10:08:47;;;;;;;8.80;8.10;;;;;;;27.47;71.83;100948.41;5078951;28;20256;-73
2023/06/23 10:11:16;;;;;;;8.67;7.97;;;;;;;27.66;71.11;100955.91;5082001;28;20209;-74
2023/06/23 10:13:41;;;;;;;8.03;7.30;;;;;;;27.74;71.02;100941.25;5091844;28;20676;-74
2023/06/23 10:16:07;;;;;;;10.63;9.53;;;;;;;27.47;71.27;100948.41;5089562;28;20189;-74
2023/06/23 10:18:33;;;;;;;8.57;7.77;;;;;;;27.46;70.94;100937.84;5079206;28;20193;-74
2023/06/23 10:21:00;;;;;;;9.50;8.30;;;;;;;27.30;70.72;100936.25;5088588;28;20680;-74
2023/06/23 10:23:27;;;;;;;8.87;8.17;;;;;;;27.16;71.01;100939.00;5079950;28;20198;-74
2023/06/23 10:25:55;;;;;;;7.67;7.00;;;;;;;27.19;71.76;100936.16;5083810;28;20197;-75
2023/06/23 10:28:22;;;;;;;7.43;6.73;;;;;;;27.22;71.27;100941.25;5072528;28;20197;-74
2023/06/23 10:30:48;;;;;;;9.47;8.67;;;;;;;27.06;70.28;100946.78;5072514;28;21742;-75
2023/06/23 10:33:18;;;;;;;8.27;7.50;;;;;;;27.04;70.73;100941.56;5070789;28;20349;-74
2023/06/23 10:35:47;;;;;;;6.93;6.33;;;;;;;27.19;70.97;100946.78;5078269;28;20698;-74
2023/06/23 10:38:17;;;;;;;7.77;7.07;;;;;;;27.25;70.49;100941.03;5078511;28;20557;-74
2023/06/23 10:40:48;;;;;;;7.60;7.00;;;;;;;27.18;69.59;100940.63;5073434;28;20185;-75
2023/06/23 10:43:15;;;;;;;7.03;6.43;;;;;;;27.01;70.47;100947.06;5072996;28;20209;-75
2023/06/23 10:45:41;;;;;;;7.63;6.80;;;;;;;26.86;70.38;100942.78;5082337;28;20269;-74
2023/06/23 10:48:07;;;;;;;7.27;6.63;;;;;;;26.66;70.76;100947.63;5079886;28;20180;-74
2023/06/23 10:50:33;;;;;;;6.70;6.10;;;;;;;26.54;71.47;100945.78;5074695;28;20181;-74
2023/06/23 10:53:16;;;;;;;7.57;6.90;;;;;;;26.51;72.78;100933.56;5068218;28;20209;-74
2023/06/23 10:55:44;;;;;;;9.07;6.80;;;;;;;26.69;72.21;100934.16;5094159;28;20610;-74
2023/06/23 10:58:10;;;;;;;7.53;6.93;;;;;;;26.39;68.47;100937.03;5091679;28;20267;-74
2023/06/23 11:00:35;;;;;;;6.40;5.90;;;;;;;26.69;70.21;100947.44;5100382;28;20284;-74
2023/06/23 11:03:01;;;;;;;7.23;6.23;;;;;;;26.77;69.98;100938.97;5085758;28;20257;-74
2023/06/23 11:05:26;;;;;;;6.60;5.97;;;;;;;27.04;69.30;100940.72;5093538;28;20312;-74
2023/06/23 11:08:02;;;;;;;5.90;5.30;;;;;;;27.28;68.79;100935.53;5087233;28;20772;-75
2023/06/23 11:11:01;;;;;;;6.00;5.50;;;;;;;27.22;68.22;100946.56;5085730;28;20279;-75
2023/06/23 11:13:44;;;;;;;8.20;7.03;;;;;;;26.89;66.82;100938.16;5053451;28;20221;-75
2023/06/23 11:16:13;;;;;;;6.13;5.63;;;;;;;26.92;68.01;100940.56;5089587;28;20189;-74
2023/06/23 11:18:51;;;;;;;5.90;5.37;;;;;;;26.90;67.52;100939.00;5086951;28;20190;-74